Time;durP1;ratioP1;P1;durP2;ratioP2;P2;SDS_P1;SDS_P2;PMS_P1;PMS_P2;Temp;Humidity;BMP_temperature;BMP_pressure;BME280_temperature;BME280_humidity;BME280_pressure;Samples;Min_cycle;Max_cycle;Signal;HPM_P1;HPM_P2
2022/06/06 00:00:50;;;;;;;2.80;1.50;;;;;;;14.29;100.00;96052.91;5018542;28;24434;-77
2022/06/06 00:03:18;;;;;;;2.33;1.60;;;;;;;14.32;100.00;96046.66;5031577;28;25015;-77
2022/06/06 00:05:47;;;;;;;2.17;1.70;;;;;;;14.38;100.00;96048.78;5031531;28;24527;-77
2022/06/06 00:08:14;;;;;;;2.10;1.50;;;;;;;14.33;100.00;96043.09;5031464;28;24524;-77
2022/06/06 00:10:43;;;;;;;2.08;1.33;;;;;;;14.24;100.00;96048.03;5031406;28;24814;-77
2022/06/06 00:13:13;;;;;;;1.73;1.35;;;;;;;14.32;100.00;96038.84;5023877;28;24436;-77
2022/06/06 00:15:39;;;;;;;2.20;1.60;;;;;;;14.37;100.00;96037.53;5024094;28;24499;-78
2022/06/06 00:18:07;;;;;;;3.97;1.58;;;;;;;14.34;100.00;96039.53;5015802;28;25210;-77
2022/06/06 00:20:35;;;;;;;2.10;1.50;;;;;;;14.31;100.00;96037.97;5030998;28;24428;-77
2022/06/06 00:23:02;;;;;;;2.40;1.60;;;;;;;14.30;100.00;96033.72;5025360;28;24511;-77
2022/06/06 00:25:29;;;;;;;3.92;1.67;;;;;;;14.36;100.00;96032.44;5011783;28;24470;-77
2022/06/06 00:27:55;;;;;;;8.80;1.58;;;;;;;14.39;100.00;96032.22;5012041;28;24452;-76
2022/06/06 00:30:23;;;;;;;1.65;1.40;;;;;;;14.43;100.00;96015.44;5027879;28;24452;-77
2022/06/06 00:35:34;;;;;;;2.50;1.38;;;;;;;14.49;100.00;96025.38;5020696;28;24568;-77
2022/06/06 00:38:00;;;;;;;1.85;1.65;;;;;;;14.57;100.00;96012.63;5020652;28;24448;-77
2022/06/06 00:40:27;;;;;;;2.08;1.58;;;;;;;14.41;100.00;96012.09;5014024;28;24428;-77
2022/06/06 00:42:53;;;;;;;3.45;1.60;;;;;;;14.15;100.00;96016.63;5031855;28;24933;-77
2022/06/06 00:45:33;;;;;;;1.73;1.55;;;;;;;13.98;100.00;96018.69;5031071;28;24820;-77
2022/06/06 00:48:18;;;;;;;3.60;1.83;;;;;;;14.06;100.00;96018.13;5018581;28;24525;-77
2022/06/06 00:50:51;;;;;;;2.63;1.70;;;;;;;14.14;100.00;96010.56;5029662;28;24543;-77
2022/06/06 00:53:21;;;;;;;2.92;2.00;;;;;;;14.16;100.00;96006.06;5030765;28;24813;-77
2022/06/06 00:55:54;;;;;;;3.70;1.80;;;;;;;14.09;100.00;96004.88;5013820;28;24464;-77
2022/06/06 00:58:25;;;;;;;3.53;1.75;;;;;;;14.10;100.00;96003.94;5027129;28;24444;-77
2022/06/06 01:00:53;;;;;;;2.42;1.60;;;;;;;14.04;100.00;96013.00;5014654;28;24460;-77
2022/06/06 01:03:24;;;;;;;3.53;1.90;;;;;;;13.97;100.00;96013.56;5030904;28;24428;-77
2022/06/06 01:05:52;;;;;;;2.78;1.65;;;;;;;13.84;100.00;96002.41;5029953;28;24440;-77
2022/06/06 01:08:21;;;;;;;3.40;1.80;;;;;;;13.97;100.00;96003.97;5016926;28;24439;-77
2022/06/06 01:10:48;;;;;;;2.75;1.63;;;;;;;14.09;100.00;95998.81;5026347;28;24447;-77
2022/06/06 01:13:16;;;;;;;2.03;1.43;;;;;;;14.17;100.00;95988.69;5016823;28;24985;-77
2022/06/06 01:15:55;;;;;;;3.43;2.10;;;;;;;14.09;100.00;96001.41;5021009;28;25020;-77
2022/06/06 01:18:31;;;;;;;2.88;1.70;;;;;;;14.09;100.00;95996.22;5011410;28;24447;-77
2022/06/06 01:21:23;;;;;;;3.13;1.75;;;;;;;14.14;100.00;95984.53;5028774;28;24439;-77
2022/06/06 01:24:21;;;;;;;2.90;1.60;;;;;;;14.09;100.00;95984.06;5021668;28;24444;-77
2022/06/06 01:27:02;;;;;;;2.83;1.70;;;;;;;13.91;100.00;96001.00;5026170;28;24432;-77
2022/06/06 01:29:34;;;;;;;6.57;2.20;;;;;;;13.80;100.00;95991.38;5011183;28;24438;-77
2022/06/06 01:32:04;;;;;;;2.42;1.70;;;;;;;13.61;100.00;95985.78;5011021;28;24479;-77
2022/06/06 01:34:34;;;;;;;2.05;1.48;;;;;;;13.43;100.00;95985.34;5010744;28;25027;-77
2022/06/06 01:37:01;;;;;;;2.70;1.80;;;;;;;13.29;100.00;95981.94;4995035;28;24440;-77
2022/06/06 01:39:31;;;;;;;2.35;1.65;;;;;;;13.48;100.00;95970.25;5011428;28;25008;-77
2022/06/06 01:42:07;;;;;;;2.72;1.92;;;;;;;13.54;100.00;95967.22;5022002;28;24474;-77
2022/06/06 01:44:40;;;;;;;3.47;2.05;;;;;;;13.56;100.00;95970.53;5025818;28;24502;-77
2022/06/06 01:47:12;;;;;;;2.60;1.60;;;;;;;13.67;100.00;95964.53;5015385;28;24431;-77
2022/06/06 01:49:40;;;;;;;2.83;1.67;;;;;;;13.72;100.00;95963.28;5021339;28;24463;-77
2022/06/06 01:52:09;;;;;;;3.70;1.80;;;;;;;13.77;100.00;95963.78;5011252;28;24453;-77
2022/06/06 01:54:36;;;;;;;3.20;1.70;;;;;;;13.67;100.00;95974.97;5010702;28;24443;-77
2022/06/06 01:57:04;;;;;;;4.65;2.20;;;;;;;13.53;100.00;95965.53;5010966;28;24437;-77
2022/06/06 01:59:32;;;;;;;2.63;1.80;;;;;;;13.54;100.00;95962.84;5011161;28;24469;-77
2022/06/06 02:02:00;;;;;;;2.37;1.90;;;;;;;13.51;100.00;95967.44;5021411;28;24531;-77
2022/06/06 02:04:27;;;;;;;3.10;2.00;;;;;;;13.58;100.00;95947.00;5015728;28;24447;-77
2022/06/06 02:06:53;;;;;;;3.17;1.77;;;;;;;13.66;100.00;95957.69;5027758;28;24440;-77
2022/06/06 02:09:20;;;;;;;4.32;1.77;;;;;;;13.72;100.00;95967.63;5030531;28;24448;-77
2022/06/06 02:11:47;;;;;;;2.33;1.90;;;;;;;13.65;100.00;95956.88;5021562;28;24463;-77
2022/06/06 02:14:14;;;;;;;2.13;1.70;;;;;;;13.71;100.00;95953.78;5018779;28;24798;-77
2022/06/06 02:16:41;;;;;;;2.83;1.65;;;;;;;13.76;100.00;95949.09;5025809;28;25003;-77
2022/06/06 02:19:11;;;;;;;2.90;1.80;;;;;;;13.79;100.00;95945.44;5014045;28;24528;-77
2022/06/06 02:21:38;;;;;;;2.42;1.90;;;;;;;13.66;100.00;95942.06;5024565;28;24455;-77
2022/06/06 02:24:05;;;;;;;2.60;1.83;;;;;;;13.60;100.00;95940.72;5014406;28;24524;-77
2022/06/06 02:26:31;;;;;;;2.13;1.73;;;;;;;13.68;100.00;95941.03;5030624;28;24435;-77
2022/06/06 02:28:58;;;;;;;3.30;1.77;;;;;;;13.70;100.00;95930.50;5017932;28;24454;-77
2022/06/06 02:31:24;;;;;;;2.55;1.50;;;;;;;13.74;100.00;95929.31;5015616;28;24456;-77
2022/06/06 02:33:51;;;;;;;1.88;1.45;;;;;;;13.75;100.00;95934.41;5014384;28;24452;-77
2022/06/06 02:36:19;;;;;;;1.80;1.50;;;;;;;13.78;100.00;95941.19;5014330;28;24436;-77
2022/06/06 02:38:45;;;;;;;2.20;1.83;;;;;;;13.75;100.00;95933.59;5014157;28;24977;-77
2022/06/06 02:41:12;;;;;;;5.95;1.73;;;;;;;13.77;100.00;95929.09;5022970;28;24542;-77
2022/06/06 02:43:40;;;;;;;1.80;1.40;;;;;;;13.79;100.00;95928.06;5033244;28;24435;-76
2022/06/06 02:46:07;;;;;;;2.07;1.70;;;;;;;13.76;100.00;95945.69;5032840;28;24439;-76
2022/06/06 02:48:34;;;;;;;2.63;1.90;;;;;;;13.46;100.00;95954.75;5030182;28;24802;-77
2022/06/06 02:51:02;;;;;;;3.08;1.70;;;;;;;13.39;100.00;95950.09;5020656;28;24458;-78
2022/06/06 02:53:30;;;;;;;4.72;1.73;;;;;;;13.10;100.00;95949.50;5023237;28;24444;-77
2022/06/06 02:55:58;;;;;;;2.90;1.83;;;;;;;12.99;100.00;95937.25;5014061;28;24432;-77
2022/06/06 02:58:26;;;;;;;2.83;2.20;;;;;;;12.88;100.00;95934.56;5016557;28;24989;-77
2022/06/06 03:00:58;;;;;;;2.30;1.77;;;;;;;12.93;100.00;95937.66;5026884;28;24555;-76
2022/06/06 03:03:25;;;;;;;2.22;1.80;;;;;;;12.89;100.00;95936.22;5016271;28;24443;-77
2022/06/06 03:05:58;;;;;;;2.92;2.10;;;;;;;12.92;100.00;95936.84;5033010;28;24434;-77
2022/06/06 03:08:41;;;;;;;2.35;2.00;;;;;;;13.08;100.00;95934.81;5033032;28;24424;-77
2022/06/06 03:11:22;;;;;;;3.50;1.83;;;;;;;13.19;100.00;95939.28;5032186;28;24459;-77
2022/06/06 03:14:01;;;;;;;2.15;1.95;;;;;;;13.31;100.00;95938.47;5033126;28;24774;-77
2022/06/06 03:22:35;;;;;;;3.00;1.80;;;;;;;13.48;100.00;95949.44;5029734;28;24451;-77
2022/06/06 03:25:13;;;;;;;3.90;2.13;;;;;;;13.35;100.00;95951.22;5020202;28;24439;-77
2022/06/06 03:27:47;;;;;;;3.00;2.00;;;;;;;13.24;100.00;95954.59;5020731;28;25009;-77
2022/06/06 03:30:21;;;;;;;2.78;2.00;;;;;;;13.33;100.00;95961.75;5030117;28;24451;-77
2022/06/06 03:33:03;;;;;;;3.10;1.88;;;;;;;13.38;100.00;95969.22;4998491;28;24456;-77
2022/06/06 03:35:41;;;;;;;4.22;2.10;;;;;;;13.43;100.00;95988.78;5023306;28;24423;-77
2022/06/06 03:38:11;;;;;;;2.33;2.00;;;;;;;13.44;100.00;95992.22;5018251;28;24444;-77
2022/06/06 03:40:49;;;;;;;3.20;1.90;;;;;;;13.30;100.00;95982.78;5016217;28;24443;-77
2022/06/06 03:43:29;;;;;;;2.72;2.03;;;;;;;13.25;100.00;95982.28;5032582;28;24766;-77
2022/06/06 03:46:11;;;;;;;3.90;2.22;;;;;;;13.10;100.00;95981.53;5032143;28;24435;-77
2022/06/06 03:48:45;;;;;;;3.63;2.13;;;;;;;13.05;100.00;95971.47;5031824;28;24444;-77
2022/06/06 03:51:23;;;;;;;3.05;2.50;;;;;;;12.98;100.00;95983.22;5031955;28;24471;-77
2022/06/06 03:53:56;;;;;;;2.38;2.00;;;;;;;13.14;100.00;95979.56;5019469;28;24443;-77
2022/06/06 03:56:39;;;;;;;2.28;2.00;;;;;;;13.29;100.00;95984.53;5031030;28;24442;-77
2022/06/06 03:59:08;;;;;;;4.28;2.35;;;;;;;13.34;100.00;95984.22;5025476;28;25044;-77
2022/06/06 04:01:38;;;;;;;2.37;2.17;;;;;;;13.46;100.00;95987.72;5012601;28;24440;-77
2022/06/06 04:04:05;;;;;;;2.88;1.80;;;;;;;13.53;100.00;95994.16;5012506;28;24423;-77
2022/06/06 04:06:33;;;;;;;3.40;2.20;;;;;;;13.25;100.00;95993.50;5015071;28;24436;-77
2022/06/06 04:08:59;;;;;;;3.05;2.17;;;;;;;13.18;100.00;95986.22;5032212;28;24482;-77
2022/06/06 04:11:39;;;;;;;3.05;2.17;;;;;;;13.13;100.00;95996.09;5030956;28;24462;-77
2022/06/06 04:14:15;;;;;;;3.70;2.10;;;;;;;13.06;100.00;95998.28;5031611;28;24801;-77
2022/06/06 04:16:54;;;;;;;3.65;2.40;;;;;;;13.20;100.00;95987.78;4995878;28;24972;-76
2022/06/06 04:19:36;;;;;;;3.03;2.40;;;;;;;13.07;100.00;95992.16;5021729;28;24450;-77
2022/06/06 04:22:13;;;;;;;4.32;2.20;;;;;;;13.02;100.00;95981.25;5016425;28;24432;-77
2022/06/06 04:24:57;;;;;;;5.18;2.22;;;;;;;13.04;100.00;95987.16;4999806;28;24443;-76
2022/06/06 04:27:33;;;;;;;2.55;2.20;;;;;;;13.27;100.00;95986.44;5031081;28;24438;-77
2022/06/06 04:30:04;;;;;;;3.50;2.13;;;;;;;13.46;100.00;95988.56;5016953;28;24441;-77
2022/06/06 04:32:46;;;;;;;3.58;2.20;;;;;;;13.68;100.00;95981.81;5012286;28;24455;-77
2022/06/06 04:35:22;;;;;;;3.65;2.10;;;;;;;13.89;100.00;95976.84;5020542;28;24435;-77
2022/06/06 04:37:54;;;;;;;3.03;2.08;;;;;;;14.03;100.00;95987.91;5031162;28;24477;-77
2022/06/06 04:40:35;;;;;;;2.55;2.17;;;;;;;14.13;100.00;95988.09;5022410;28;25113;-77
2022/06/06 04:43:09;;;;;;;4.88;2.10;;;;;;;14.26;100.00;95977.56;5024490;28;25012;-77
2022/06/06 04:45:41;;;;;;;5.18;1.92;;;;;;;14.29;100.00;95979.97;5011368;28;24439;-77
2022/06/06 04:48:09;;;;;;;2.35;1.95;;;;;;;14.35;100.00;95978.66;5011695;28;24441;-77
2022/06/06 04:50:36;;;;;;;2.90;2.00;;;;;;;14.41;100.00;95980.81;4998763;28;24447;-76
2022/06/06 04:53:08;;;;;;;3.28;2.08;;;;;;;14.42;100.00;95982.47;5023662;28;24455;-77
2022/06/06 04:55:37;;;;;;;2.78;1.95;;;;;;;14.40;100.00;95981.78;5016199;28;24452;-77
2022/06/06 04:58:06;;;;;;;2.80;1.90;;;;;;;14.37;100.00;95984.59;5011037;28;24483;-77
2022/06/06 05:00:36;;;;;;;2.35;1.92;;;;;;;14.45;100.00;95982.25;5025874;28;24535;-77
2022/06/06 05:03:03;;;;;;;3.08;2.00;;;;;;;14.41;100.00;95986.84;5008936;28;24818;-77
2022/06/06 05:05:40;;;;;;;6.78;2.10;;;;;;;14.52;100.00;95992.13;5011472;28;24438;-77
2022/06/06 05:08:21;;;;;;;1.85;1.70;;;;;;;14.54;100.00;95984.22;5009789;28;24444;-77
2022/06/06 05:11:01;;;;;;;4.10;2.40;;;;;;;14.42;100.00;95987.69;5001154;28;24489;-77
2022/06/06 05:13:50;;;;;;;5.20;2.20;;;;;;;14.42;100.00;95979.88;5030366;28;24546;-77
2022/06/06 05:16:34;;;;;;;3.80;2.67;;;;;;;14.52;100.00;96001.72;5029840;28;24845;-77
2022/06/06 05:19:17;;;;;;;5.15;2.42;;;;;;;14.51;100.00;95993.09;5025637;28;24495;-77
2022/06/06 05:22:07;;;;;;;2.40;2.13;;;;;;;14.63;100.00;95986.13;5023683;28;24802;-77
2022/06/06 05:24:51;;;;;;;3.30;2.30;;;;;;;14.50;100.00;95995.81;5011314;28;24440;-76
2022/06/06 05:27:40;;;;;;;3.10;2.20;;;;;;;14.53;100.00;95998.16;5018747;28;24980;-76
2022/06/06 05:30:18;;;;;;;3.65;2.47;;;;;;;14.61;100.00;95992.38;5030114;28;24841;-77
2022/06/06 05:32:58;;;;;;;3.30;2.50;;;;;;;14.74;100.00;96001.78;5030122;28;24455;-76
2022/06/06 05:35:36;;;;;;;3.20;2.20;;;;;;;14.88;100.00;96011.16;5012664;28;24814;-76
2022/06/06 05:38:20;;;;;;;4.50;2.53;;;;;;;15.07;100.00;96017.59;5010594;28;24448;-76
2022/06/06 05:40:55;;;;;;;3.75;2.25;;;;;;;15.30;100.00;96019.25;5008315;28;24451;-76
2022/06/06 05:43:30;;;;;;;2.33;2.10;;;;;;;15.38;100.00;96005.59;5012215;28;24524;-76
2022/06/06 05:46:12;;;;;;;3.63;2.45;;;;;;;15.54;100.00;96007.84;5011071;28;24436;-77
2022/06/06 05:48:55;;;;;;;5.05;2.80;;;;;;;15.74;100.00;96007.13;5011006;28;24440;-77
2022/06/06 05:51:35;;;;;;;2.53;2.33;;;;;;;15.90;100.00;96002.31;5012071;28;25143;-77
2022/06/06 05:54:14;;;;;;;2.25;2.00;;;;;;;16.10;100.00;96005.94;4999020;28;24532;-77
2022/06/06 05:56:54;;;;;;;3.10;1.90;;;;;;;16.16;100.00;96009.84;5022960;28;24436;-77
2022/06/06 05:59:40;;;;;;;3.58;2.15;;;;;;;16.29;100.00;96010.50;5014880;28;24432;-77
2022/06/06 06:02:25;;;;;;;3.20;2.88;;;;;;;16.43;100.00;96018.06;5014593;28;25029;-77
2022/06/06 06:05:05;;;;;;;3.70;2.60;;;;;;;16.60;100.00;96023.66;5024405;28;24485;-77
2022/06/06 06:07:41;;;;;;;4.70;2.42;;;;;;;16.72;100.00;96029.66;5019018;28;24436;-77
2022/06/06 06:10:11;;;;;;;2.37;2.07;;;;;;;16.90;100.00;96025.53;4994764;28;24417;-77
2022/06/06 06:13:05;;;;;;;2.80;2.20;;;;;;;17.08;100.00;96025.78;5009954;28;24462;-77
2022/06/06 06:15:36;;;;;;;3.67;2.30;;;;;;;17.27;100.00;96030.28;5035150;28;24432;-77
2022/06/06 06:18:11;;;;;;;2.95;2.50;;;;;;;17.09;100.00;96030.03;5030259;28;24455;-75
2022/06/06 06:20:43;;;;;;;4.93;2.58;;;;;;;17.15;100.00;96029.53;5014355;28;24436;-75
2022/06/06 06:23:16;;;;;;;4.57;2.30;;;;;;;17.03;100.00;96034.03;5027034;28;24443;-76
2022/06/06 06:25:45;;;;;;;2.47;2.10;;;;;;;17.02;100.00;96034.13;5013224;28;24452;-75
2022/06/06 06:28:13;;;;;;;4.80;2.43;;;;;;;17.00;100.00;96036.91;5017265;28;24444;-76
2022/06/06 06:30:56;;;;;;;4.70;2.28;;;;;;;17.23;100.00;96049.81;5014296;28;24445;-75
2022/06/06 06:33:43;;;;;;;3.22;2.20;;;;;;;17.36;100.00;96053.06;5020606;28;24452;-76
2022/06/06 06:36:23;;;;;;;5.43;2.53;;;;;;;17.55;100.00;96061.00;5015726;28;24435;-75
2022/06/06 06:39:09;;;;;;;3.10;2.15;;;;;;;17.52;100.00;96061.25;5022255;28;24440;-75
2022/06/06 06:41:46;;;;;;;2.50;2.20;;;;;;;17.57;100.00;96068.72;5037237;28;24436;-76
2022/06/06 06:44:22;;;;;;;4.57;2.10;;;;;;;17.71;100.00;96075.38;5035875;28;24436;-76
2022/06/06 06:46:53;;;;;;;4.30;1.93;;;;;;;17.72;100.00;96075.25;5033753;28;24445;-76
2022/06/06 06:49:32;;;;;;;4.35;2.45;;;;;;;17.80;100.00;96070.22;5033248;28;24447;-76
2022/06/06 06:52:10;;;;;;;6.28;2.28;;;;;;;17.69;100.00;96080.78;5019419;28;24515;-75
2022/06/06 06:54:56;;;;;;;2.95;2.20;;;;;;;17.77;100.00;96078.34;5032626;28;24440;-76
2022/06/06 06:57:38;;;;;;;2.50;2.20;;;;;;;17.59;100.00;96080.72;5023536;28;24440;-76
2022/06/06 07:00:10;;;;;;;3.07;2.20;;;;;;;17.74;100.00;96075.94;5021354;28;24440;-76
2022/06/06 07:08:39;;;;;;;6.03;2.05;;;;;;;17.64;100.00;96077.69;5012544;28;24431;-76
2022/06/06 07:11:17;;;;;;;4.57;2.00;;;;;;;17.59;100.00;96078.09;5014146;28;24803;-76
2022/06/06 07:13:59;;;;;;;3.78;1.92;;;;;;;17.74;100.00;96075.94;5014771;28;24451;-77
2022/06/06 07:16:29;;;;;;;3.08;1.80;;;;;;;17.87;100.00;96073.09;5013176;28;24440;-77
2022/06/06 07:19:07;;;;;;;2.30;2.00;;;;;;;17.94;100.00;96078.66;5016022;28;25009;-77
2022/06/06 07:21:36;;;;;;;3.70;1.95;;;;;;;18.04;100.00;96075.09;5015955;28;25004;-77
2022/06/06 07:24:05;;;;;;;3.83;2.13;;;;;;;18.15;100.00;96079.41;5014596;28;24487;-77
2022/06/06 07:26:37;;;;;;;2.95;1.90;;;;;;;18.10;100.00;96071.94;5020089;28;24790;-78
2022/06/06 07:29:06;;;;;;;3.72;2.30;;;;;;;18.02;100.00;96078.81;5019130;28;24445;-77
2022/06/06 07:31:43;;;;;;;2.85;1.95;;;;;;;17.97;100.00;96079.22;5034775;28;24444;-77
2022/06/06 07:34:25;;;;;;;3.40;1.83;;;;;;;17.90;100.00;96084.16;5020141;28;24451;-78
2022/06/06 07:37:07;;;;;;;2.30;1.70;;;;;;;18.01;100.00;96085.84;5018491;28;24444;-78
2022/06/06 07:39:47;;;;;;;3.20;1.77;;;;;;;18.00;99.52;96081.56;5019228;28;24435;-77
2022/06/06 07:42:27;;;;;;;3.22;1.90;;;;;;;18.10;99.83;96078.97;5017476;28;24461;-78
2022/06/06 07:45:09;;;;;;;3.00;1.85;;;;;;;18.17;98.33;96079.25;5018283;28;24990;-78
2022/06/06 07:47:48;;;;;;;4.78;2.08;;;;;;;18.35;98.72;96072.38;5022469;28;24474;-77
2022/06/06 07:50:21;;;;;;;2.05;1.77;;;;;;;18.48;96.84;96080.81;5028431;28;24455;-77
2022/06/06 07:52:56;;;;;;;2.20;1.67;;;;;;;18.65;97.50;96066.19;5019071;28;24471;-78
2022/06/06 07:55:27;;;;;;;3.05;1.73;;;;;;;18.79;91.72;96071.03;5030737;28;24487;-78
2022/06/06 07:58:00;;;;;;;2.58;1.50;;;;;;;19.04;95.96;96072.25;5028281;28;24444;-78
2022/06/06 08:00:28;;;;;;;1.85;1.65;;;;;;;19.10;87.18;96061.19;5031189;28;24428;-78
2022/06/06 08:02:58;;;;;;;3.08;1.55;;;;;;;19.18;88.01;96057.84;5019630;28;24494;-78
2022/06/06 08:05:43;;;;;;;1.95;1.48;;;;;;;19.03;87.48;96057.47;5036372;28;24427;-77
2022/06/06 08:08:24;;;;;;;4.40;1.60;;;;;;;19.04;87.23;96058.28;5025772;28;24476;-76
2022/06/06 08:10:51;;;;;;;1.85;1.55;;;;;;;19.26;88.18;96059.75;5034187;28;24447;-77
2022/06/06 08:13:29;;;;;;;2.37;1.60;;;;;;;19.27;85.95;96064.03;5030731;28;24499;-77
2022/06/06 08:16:11;;;;;;;2.95;1.65;;;;;;;19.20;83.05;96063.78;5019211;28;24435;-77
2022/06/06 08:19:04;;;;;;;3.08;1.70;;;;;;;19.24;82.56;96053.81;5026247;28;24638;-77
2022/06/06 08:21:36;;;;;;;2.45;1.40;;;;;;;19.34;82.06;96052.00;5012786;28;24436;-76
2022/06/06 08:24:07;;;;;;;2.58;1.40;;;;;;;19.30;81.23;96050.63;5018207;28;24440;-78
2022/06/06 08:26:37;;;;;;;2.35;1.50;;;;;;;19.59;82.26;96047.91;5027437;28;24808;-78
2022/06/06 08:29:06;;;;;;;3.37;1.60;;;;;;;20.00;81.83;96051.84;5016006;28;24436;-77
2022/06/06 08:31:33;;;;;;;4.60;1.38;;;;;;;20.34;79.48;96051.22;5014056;28;24818;-76
2022/06/06 08:34:00;;;;;;;2.15;1.40;;;;;;;20.36;76.22;96044.03;5030376;28;24522;-77
2022/06/06 08:36:45;;;;;;;4.10;1.70;;;;;;;19.82;79.96;96041.31;5021422;28;24474;-76
2022/06/06 08:39:22;;;;;;;3.25;1.38;;;;;;;20.11;81.85;96048.19;5019320;28;24444;-77
2022/06/06 08:42:05;;;;;;;5.30;1.48;;;;;;;19.92;78.97;96043.88;5030770;28;24436;-76
2022/06/06 08:44:51;;;;;;;4.07;1.85;;;;;;;19.84;78.64;96043.81;5020499;28;24438;-76
2022/06/06 08:47:29;;;;;;;2.30;1.50;;;;;;;19.82;80.02;96043.09;5032512;28;24474;-77
2022/06/06 08:53:30;;;;;;;2.72;1.52;;;;;;;19.70;78.41;96046.91;5024164;28;24439;-77
2022/06/06 08:56:17;;;;;;;1.48;1.30;;;;;;;20.08;80.44;96040.59;5028600;28;26242;-78
2022/06/06 08:59:24;;;;;;;4.85;1.58;;;;;;;20.21;77.69;96034.97;5012468;28;24436;-77
2022/06/06 09:02:31;;;;;;;2.63;1.50;;;;;;;19.98;77.32;96029.31;5011177;28;24498;-76
2022/06/06 09:05:32;;;;;;;10.82;2.08;;;;;;;20.00;76.74;96017.69;5008972;28;24435;-76
2022/06/06 09:08:29;;;;;;;3.45;1.85;;;;;;;20.46;74.56;96020.25;4979042;28;24467;-77
2022/06/06 09:11:21;;;;;;;3.58;1.50;;;;;;;20.92;71.09;96024.44;5020860;28;24434;-77
2022/06/06 09:14:15;;;;;;;2.90;1.50;;;;;;;20.86;74.54;96025.03;5014963;28;24451;-76
2022/06/06 09:17:13;;;;;;;1.88;1.40;;;;;;;20.54;73.93;96028.25;4998299;28;24506;-75
2022/06/06 09:20:21;;;;;;;4.03;1.50;;;;;;;20.56;75.46;96028.09;5026089;28;24436;-76
2022/06/06 09:23:04;;;;;;;2.08;1.35;;;;;;;21.00;73.47;96023.66;4999354;28;24440;-76
2022/06/06 09:25:45;;;;;;;3.42;1.67;;;;;;;21.17;74.42;96020.16;5025149;28;24436;-77
2022/06/06 09:28:52;;;;;;;2.15;1.60;;;;;;;21.36;71.87;96024.41;5030241;28;24815;-77
2022/06/06 09:31:47;;;;;;;4.50;1.75;;;;;;;20.87;73.43;96023.22;5018204;28;24447;-77
2022/06/06 09:34:46;;;;;;;4.00;1.48;;;;;;;20.63;74.30;96027.34;5030854;28;24726;-76
2022/06/06 09:37:32;;;;;;;1.30;1.10;;;;;;;20.60;72.53;96026.81;5020354;28;25081;-77
2022/06/06 09:40:17;;;;;;;2.05;1.25;;;;;;;20.94;72.10;96030.34;5029223;28;24841;-77
2022/06/06 09:43:01;;;;;;;3.33;1.63;;;;;;;20.95;71.08;96018.88;5009988;28;24555;-77
2022/06/06 09:45:31;;;;;;;2.90;1.60;;;;;;;21.15;73.93;96016.84;5008472;28;24493;-77
2022/06/06 09:48:54;;;;;;;2.40;1.30;;;;;;;21.89;68.78;96014.59;5014523;28;24440;-77
2022/06/06 09:51:57;;;;;;;2.88;1.45;;;;;;;22.46;65.71;96020.81;4982670;28;24445;-77
2022/06/06 10:01:26;;;;;;;2.15;1.23;;;;;;;22.73;57.79;96004.81;5006736;28;25042;-77
2022/06/06 10:04:29;;;;;;;2.58;1.20;;;;;;;22.52;56.58;95994.75;5008363;28;24451;-77
2022/06/06 10:07:18;;;;;;;1.90;1.20;;;;;;;21.81;61.11;96002.19;5007568;28;24444;-77
2022/06/06 10:10:14;;;;;;;1.85;1.00;;;;;;;21.45;60.00;95999.75;5022310;28;24490;-76
2022/06/06 10:12:59;;;;;;;1.85;1.20;;;;;;;21.98;60.40;95987.22;4995839;28;24448;-77
2022/06/06 10:15:56;;;;;;;2.40;1.38;;;;;;;22.27;59.95;95986.81;5020190;28;24436;-77
2022/06/06 10:18:49;;;;;;;2.53;1.10;;;;;;;21.65;58.31;95984.50;5021832;28;24531;-76
2022/06/06 10:21:36;;;;;;;1.98;1.30;;;;;;;20.77;60.99;95986.50;5021883;28;24490;-76
2022/06/06 10:24:21;;;;;;;2.10;1.15;;;;;;;21.03;61.44;95983.88;5010608;28;25016;-77
2022/06/06 10:26:59;;;;;;;2.85;1.35;;;;;;;20.77;61.88;95986.50;4996776;28;24443;-76
2022/06/06 10:30:13;;;;;;;2.80;1.10;;;;;;;20.54;63.13;95986.13;5020786;28;24448;-76
2022/06/06 10:33:14;;;;;;;2.58;1.42;;;;;;;20.73;64.84;95985.16;4994607;28;24977;-75
2022/06/06 10:35:52;;;;;;;2.33;1.30;;;;;;;20.86;64.13;95974.22;5021174;28;24447;-77
2022/06/06 10:38:36;;;;;;;2.33;1.25;;;;;;;21.57;64.10;95986.28;5010743;28;24495;-77
2022/06/06 10:41:12;;;;;;;3.03;1.10;;;;;;;22.12;60.64;95988.41;5011175;28;24443;-76
2022/06/06 10:44:00;;;;;;;2.38;1.42;;;;;;;22.11;62.93;95979.69;5013031;28;24444;-76
2022/06/06 10:46:41;;;;;;;2.90;1.30;;;;;;;21.89;60.50;95973.22;5030822;28;24486;-77
2022/06/06 10:49:20;;;;;;;3.00;1.08;;;;;;;21.66;60.25;95985.34;5026807;28;24455;-76
2022/06/06 10:52:25;;;;;;;1.38;1.17;;;;;;;21.10;63.76;95976.16;5025917;28;24440;-76
2022/06/06 10:55:29;;;;;;;3.08;1.35;;;;;;;21.23;62.75;95976.56;4998431;28;24547;-76
2022/06/06 10:58:33;;;;;;;2.97;1.52;;;;;;;21.22;61.91;95975.72;5026179;28;25042;-76
2022/06/06 11:01:42;;;;;;;4.72;1.40;;;;;;;21.73;59.75;95984.56;4982359;28;24458;-77
2022/06/06 11:04:49;;;;;;;2.63;1.27;;;;;;;21.93;60.03;95977.19;5033509;28;24436;-77
2022/06/06 11:07:58;;;;;;;2.40;1.33;;;;;;;21.58;60.93;95975.59;5010316;28;25294;-76
2022/06/06 11:11:25;;;;;;;1.63;1.10;;;;;;;21.16;62.11;95963.19;4968317;28;24442;-76
2022/06/06 11:14:00;;;;;;;1.23;1.00;;;;;;;20.98;62.37;95965.06;4997254;28;24524;-76
2022/06/06 11:17:00;;;;;;;2.65;1.25;;;;;;;20.92;63.49;95955.16;5032454;28;24450;-76
2022/06/06 11:20:03;;;;;;;2.22;1.38;;;;;;;20.78;63.17;95957.38;5011643;28;24440;-76
2022/06/06 11:22:33;;;;;;;1.37;1.03;;;;;;;20.49;65.72;95959.44;5016639;28;25053;-77
2022/06/06 11:25:11;;;;;;;1.85;1.20;;;;;;;20.41;65.86;95960.19;5001303;28;24443;-77
2022/06/06 11:28:08;;;;;;;1.83;1.23;;;;;;;20.30;66.13;95955.19;5023116;28;24543;-76
2022/06/06 11:30:55;;;;;;;2.20;1.60;;;;;;;20.13;67.28;95963.91;5030274;28;24435;-77
2022/06/06 11:34:08;;;;;;;2.38;1.38;;;;;;;20.18;66.83;95964.28;5035658;28;24443;-77
2022/06/06 11:37:14;;;;;;;2.30;1.00;;;;;;;20.12;67.86;95968.31;5015406;28;25064;-77
2022/06/06 11:40:05;;;;;;;2.27;1.30;;;;;;;20.00;69.36;95953.75;5002810;28;24789;-77
2022/06/06 11:43:08;;;;;;;3.53;1.40;;;;;;;20.24;68.47;95955.78;5016902;28;24443;-77
2022/06/06 11:46:09;;;;;;;2.05;1.20;;;;;;;20.28;68.00;95952.72;5012977;28;24443;-77
2022/06/06 11:49:06;;;;;;;3.20;1.33;;;;;;;20.36;66.92;95946.69;5014132;28;24436;-77
2022/06/06 11:51:58;;;;;;;1.55;1.20;;;;;;;20.44;67.59;95946.75;5018451;28;24988;-77
2022/06/06 11:55:09;;;;;;;2.22;1.23;;;;;;;20.54;67.54;95947.53;5024098;28;25013;-77
2022/06/06 11:57:53;;;;;;;1.60;1.27;;;;;;;20.73;66.57;95943.03;5016003;28;24443;-77
2022/06/06 12:00:30;;;;;;;2.43;1.50;;;;;;;20.97;65.00;95948.44;5013388;28;25020;-78
2022/06/06 12:03:14;;;;;;;2.50;1.40;;;;;;;21.47;66.77;95952.19;5017683;28;24432;-76
2022/06/06 12:06:15;;;;;;;2.20;1.10;;;;;;;21.53;65.76;95940.97;5022783;28;24432;-77
2022/06/06 12:09:03;;;;;;;2.22;1.27;;;;;;;21.91;68.21;95930.84;5018219;28;24479;-77
2022/06/06 12:12:14;;;;;;;7.10;1.67;;;;;;;21.49;63.64;95932.56;5018566;28;24439;-77
2022/06/06 12:15:14;;;;;;;2.75;1.27;;;;;;;21.39;63.16;95925.78;5016172;28;24510;-76
2022/06/06 12:17:52;;;;;;;2.75;1.30;;;;;;;21.21;64.71;95925.84;5017248;28;24439;-77
2022/06/06 12:20:47;;;;;;;2.60;1.50;;;;;;;21.03;65.82;95921.50;5018491;28;24439;-77
2022/06/06 12:23:19;;;;;;;2.00;1.50;;;;;;;20.84;66.76;95919.09;5017598;28;25170;-77
2022/06/06 12:26:27;;;;;;;2.08;1.17;;;;;;;20.65;66.31;95919.28;5015577;28;24448;-77
2022/06/06 12:29:40;;;;;;;3.95;1.10;;;;;;;20.45;68.28;95914.19;5014994;28;24483;-77
2022/06/06 12:32:35;;;;;;;3.22;1.70;;;;;;;20.06;73.94;95930.34;5018348;28;25083;-78
2022/06/06 12:35:06;;;;;;;2.80;1.50;;;;;;;19.68;67.82;95928.78;5020487;28;24456;-77
2022/06/06 12:37:45;;;;;;;4.13;1.83;;;;;;;19.39;66.73;95931.56;5020790;28;24449;-77
2022/06/06 12:40:19;;;;;;;2.87;2.00;;;;;;;19.16;67.22;95927.69;5021263;28;24660;-77
2022/06/06 12:42:57;;;;;;;3.47;1.60;;;;;;;19.12;68.65;95931.56;5020965;28;24490;-77
2022/06/06 12:45:53;;;;;;;4.60;1.90;;;;;;;19.08;68.83;95929.22;5017872;28;24490;-77
2022/06/06 12:48:40;;;;;;;2.78;1.20;;;;;;;18.90;69.50;95927.50;5019256;28;25020;-77
2022/06/06 12:51:17;;;;;;;2.40;1.10;;;;;;;18.86;71.39;95926.97;5020498;28;24452;-77